Niceville, FL (32578)

8:22 PM CDT on March 27, 2017 (GMT -0500)
BayView Cam/Weather courtesy Clara Miles, REALTOR | | Change Station

Elev 27 ft 30.49 °N, 86.46 °W | Updated 10 minutes ago

Partly Cloudy
Partly Cloudy
70.3 °F
Feels Like 70.3 °F
N
11.0
Wind Variable Wind from SSE
Gusts 12.0 mph

Today
High -- | Low -- °F
--% Chance of Precip.
Yesterday
High -- | Low -- °F
Precip. -- in
Pressure 30.01 in
Visibility 10.0 miles
Clouds Few 1500 ft
Few 8500 ft
Mostly Cloudy 20000 ft
Dew Point 66 °F
Humidity 87%
Rainfall 0.00 in
Snow Depth Not available.
6:40 AM 7:01 PM
Waning Crescent, 0% visible
METAR KVPS 280055Z 17007KT 10SM FEW015 FEW085 BKN200 21/19 A3000 RMK AO2A SLP160 T02130193 $
Pressure 30.01 in
Visibility 10.0 miles
Clouds Few 1500 ft
Few 8500 ft
Mostly Cloudy 20000 ft
Dew Point 66 °F
Humidity 87%
Rainfall 0.00 in
Snow Depth Not available.
6:40 AM 7:01 PM
Waning Crescent, 0% visible
METAR KVPS 280055Z 17007KT 10SM FEW015 FEW085 BKN200 21/19 A3000 RMK AO2A SLP160 T02130193 $

Get Severe Weather Alerts

Thanks for signing up!

Be on the lookout for a verification email in your inbox.

You'll start receiving the daily forecast at 8 AM.

×

10-Day Weather Forecast

Almanac

Astronomy

Mar. 27, 2017 Rise Set
Actual Time
Civil Twilight
Nautical Twilight
Astronomical Twilight
Moon
Length of Visible Light
Length of Day
Tomorrow will be .
, % of the Moon is Illuminated

Today's Extremes

State Highs State Lows

Community

WunderPhotos

Upload Photos

1,962,540 photos uploaded!

WunderBlog® & News

Nearby

Air Quality

  Air Quality AQ Index Pollutant
Not available.

Snow Depth

Station Depth Elevation

Earthquake Activity

City Distance Mag. Time & Date
Minimum magnitude displayed is 2.5.

Earthquake Activity

City Distance Mag. Time & Date
Minimum magnitude displayed is 2.5.

Coastal Water Temperatures

Place Temperature

Stations

Nearby Weather Stations

Station Location Temp. Windchill Dew Point Humidity Wind Precip. Elev Updated Type
                   

Watches & Warnings

There are currently no watches in effect.